createdAt,value
2023-01-07T00:02:22.508Z,101393.34
2023-01-07T00:05:10.060Z,101404.72
2023-01-07T00:07:56.487Z,101272.59
2023-01-07T00:10:43.336Z,101386.31
2023-01-07T00:13:31.447Z,101376.69
2023-01-07T00:16:20.348Z,101353.91
2023-01-07T00:19:08.351Z,101365.31
2023-01-07T00:21:55.070Z,101375.81
2023-01-07T00:24:41.620Z,101378.44
2023-01-07T00:27:28.344Z,101382.81
2023-01-07T00:30:16.614Z,101376.66
2023-01-07T00:33:06.440Z,101371.44
2023-01-07T00:36:00.534Z,101387.19
2023-01-07T00:38:47.761Z,101379.31
2023-01-07T00:41:34.775Z,101380.19
2023-01-07T00:44:21.581Z,101376.69
2023-01-07T00:47:10.928Z,101382.81
2023-01-07T00:49:57.575Z,101393.34
2023-01-07T00:52:44.331Z,101390.72
2023-01-07T00:55:32.139Z,101383.69
2023-01-07T00:58:22.857Z,101387.22
2023-01-07T01:01:13.228Z,101388.09
2023-01-07T01:04:01.518Z,101387.22
2023-01-07T01:06:48.113Z,101397.72
2023-01-07T01:09:35.101Z,101395.97
2023-01-07T01:12:21.989Z,101391.59
2023-01-07T01:15:11.445Z,101400.34
2023-01-07T01:17:58.178Z,101397.72
2023-01-07T01:20:46.173Z,101393.31
2023-01-07T01:23:33.139Z,101401.19
2023-01-07T01:26:19.824Z,101398.59
2023-01-07T01:29:06.809Z,101405.59
2023-01-07T01:31:54.983Z,101398.56
2023-01-07T01:34:42.562Z,101403.81
2023-01-07T01:37:30.776Z,101394.16
2023-01-07T01:40:18.233Z,101395.06
2023-01-07T01:43:05.591Z,101388.06
2023-01-07T01:45:52.530Z,101385.44
2023-01-07T01:48:43.053Z,101381.91
2023-01-07T01:51:34.926Z,101374.91
2023-01-07T01:54:23.508Z,101378.41
2023-01-07T01:57:13.792Z,101367.91
2023-01-07T02:00:01.182Z,101371.44
2023-01-07T02:02:52.219Z,101376.69
2023-01-07T02:05:42.780Z,101376.69
2023-01-07T02:08:29.667Z,101383.69
2023-01-07T02:11:33.316Z,101383.69
2023-01-07T02:14:45.640Z,101381.09
2023-01-07T02:17:45.672Z,101382.84
2023-01-07T02:20:47.778Z,101377.63
2023-01-07T02:24:23.040Z,101365.31
2023-01-07T02:27:27.927Z,101364.50
2023-01-07T02:30:38.118Z,101370.63
2023-01-07T02:33:42.059Z,101370.59
2023-01-07T02:36:44.415Z,101366.22
2023-01-07T02:39:41.916Z,101360.97
2023-01-07T02:42:36.498Z,101356.59
2023-01-07T02:45:30.647Z,101362.72
2023-01-07T02:48:20.861Z,101353.97
2023-01-07T02:51:09.204Z,101346.97
2023-01-07T02:53:57.375Z,101345.22
2023-01-07T02:57:03.055Z,101339.97
2023-01-07T03:00:08.194Z,101330.34
2023-01-07T03:03:32.304Z,101337.34
2023-01-07T03:06:36.028Z,101336.47
2023-01-07T03:09:32.380Z,101339.09
2023-01-07T03:12:25.839Z,101337.34
2023-01-07T03:15:18.711Z,101344.34
2023-01-07T03:18:11.743Z,101338.22
2023-01-07T03:21:01.028Z,101369.72
2023-01-07T03:23:53.884Z,101346.97
2023-01-07T03:26:43.558Z,101314.59
2023-01-07T03:29:32.314Z,101344.34
2023-01-07T03:32:26.421Z,101340.84
2023-01-07T03:35:13.226Z,101343.47
2023-01-07T03:38:04.152Z,101346.97
2023-01-07T03:40:53.571Z,101336.44
2023-01-07T03:43:39.076Z,101331.19
2023-01-07T03:46:26.047Z,101336.44
2023-01-07T03:49:15.041Z,101338.19
2023-01-07T03:52:02.017Z,101332.94
2023-01-07T03:54:48.764Z,101330.31
2023-01-07T03:57:38.132Z,101334.69
2023-01-07T04:00:25.384Z,101336.44
2023-01-07T04:03:30.883Z,101319.81
2023-01-07T04:06:17.666Z,101327.66
2023-01-07T04:09:04.730Z,101327.63
2023-01-07T04:11:53.380Z,101326.75
2023-01-07T04:14:42.302Z,101326.75
2023-01-07T04:17:29.156Z,101327.63
2023-01-07T04:20:15.950Z,101330.25
2023-01-07T04:23:03.193Z,101318.88
2023-01-07T04:25:52.249Z,101302.22
2023-01-07T04:28:43.289Z,101298.75
2023-01-07T04:31:31.718Z,101303.16
2023-01-07T04:34:18.829Z,101296.16
2023-01-07T04:37:05.758Z,101298.84
2023-01-07T04:39:52.436Z,101307.59
2023-01-07T04:42:39.168Z,101305.84
2023-01-07T04:45:28.627Z,101300.59
2023-01-07T04:48:18.343Z,101282.22
2023-01-07T04:51:06.348Z,101271.72
2023-01-07T04:53:53.218Z,101277.84
2023-01-07T04:56:40.387Z,101289.22
2023-01-07T04:59:27.401Z,101282.22
2023-01-07T05:02:15.934Z,101288.34
2023-01-07T05:05:04.784Z,101292.72
2023-01-07T05:07:52.623Z,101301.47
2023-01-07T05:10:40.492Z,101297.97
2023-01-07T05:13:27.214Z,101295.28
2023-01-07T05:16:13.999Z,101284.78
2023-01-07T05:19:02.067Z,101293.53
2023-01-07T05:21:52.717Z,101283.00
2023-01-07T05:24:39.409Z,101289.13
2023-01-07T05:27:26.771Z,101290.00
2023-01-07T05:30:13.905Z,101289.13
2023-01-07T05:33:00.456Z,101287.38
2023-01-07T05:35:48.887Z,101292.63
2023-01-07T05:38:37.832Z,101294.38
2023-01-07T05:41:24.928Z,101298.75
2023-01-07T05:44:12.012Z,101297.00
2023-01-07T05:46:58.863Z,101297.00
2023-01-07T05:49:45.917Z,101293.50
2023-01-07T05:52:32.800Z,101297.88
2023-01-07T05:55:20.971Z,101297.00
2023-01-07T05:58:09.113Z,101304.00
2023-01-07T06:00:56.182Z,101298.75
2023-01-07T06:03:42.947Z,101300.50
2023-01-07T06:06:29.752Z,101296.09
2023-01-07T06:09:16.607Z,101301.34
2023-01-07T06:12:04.938Z,101305.72
2023-01-07T06:14:51.567Z,101288.19
2023-01-07T06:17:38.386Z,101296.94
2023-01-07T06:20:25.345Z,101289.88
2023-01-07T06:23:11.714Z,101290.75
2023-01-07T06:25:58.623Z,101287.25
2023-01-07T06:28:47.034Z,101285.50
2023-01-07T06:31:33.913Z,101277.59
2023-01-07T06:34:20.419Z,101276.72
2023-01-07T06:37:07.503Z,101276.72
2023-01-07T06:39:53.837Z,101278.47
2023-01-07T06:42:40.678Z,101276.69
2023-01-07T06:45:29.111Z,101267.81
2023-01-07T06:48:15.834Z,101273.06
2023-01-07T06:51:02.518Z,101275.63
2023-01-07T06:53:49.502Z,101282.72
2023-01-07T06:56:36.334Z,101280.03
2023-01-07T06:59:23.208Z,101283.59
2023-01-07T07:02:22.095Z,101288.00
2023-01-07T07:05:09.084Z,101288.00
2023-01-07T07:07:56.079Z,101280.09
2023-01-07T07:10:42.847Z,101286.19
2023-01-07T07:13:29.641Z,101284.44
2023-01-07T07:16:16.439Z,101291.38
2023-01-07T07:19:04.869Z,101277.31
2023-01-07T07:21:51.393Z,101291.41
2023-01-07T07:24:38.143Z,101294.91
2023-01-07T07:27:25.076Z,101294.88
2023-01-07T07:30:13.044Z,101297.44
2023-01-07T07:33:03.902Z,101292.22
2023-01-07T07:35:51.722Z,101286.09
2023-01-07T07:38:38.327Z,101292.22
2023-01-07T07:41:25.102Z,101292.22
2023-01-07T07:44:11.928Z,101286.81
2023-01-07T07:46:58.964Z,101293.00
2023-01-07T07:49:45.950Z,101292.97
2023-01-07T07:52:33.937Z,101299.09
2023-01-07T07:55:26.014Z,101300.78
2023-01-07T07:58:13.512Z,101289.28
2023-01-07T08:01:00.277Z,101286.69
2023-01-07T08:03:47.110Z,101287.44
2023-01-07T08:06:34.408Z,101284.78
2023-01-07T08:09:22.543Z,101281.25
2023-01-07T08:12:09.589Z,101280.34
2023-01-07T08:14:56.243Z,101288.25
2023-01-07T08:17:43.610Z,101290.75
2023-01-07T08:20:31.543Z,101289.88
2023-01-07T08:23:18.351Z,101284.63
2023-01-07T08:26:06.878Z,101286.44
2023-01-07T08:28:54.824Z,101288.03
2023-01-07T08:31:41.779Z,101276.66
2023-01-07T08:34:29.292Z,101284.56
2023-01-07T08:37:16.299Z,101283.69
2023-01-07T08:40:05.813Z,101282.63
2023-01-07T08:42:54.020Z,101282.50
2023-01-07T08:45:40.531Z,101286.03
2023-01-07T08:48:27.372Z,101294.75
2023-01-07T08:51:14.237Z,101273.81
2023-01-07T08:54:01.068Z,101267.66
2023-01-07T08:56:47.799Z,101259.63
2023-01-07T08:59:36.081Z,101264.78
2023-01-07T09:02:22.976Z,101275.19
2023-01-07T09:05:11.088Z,101273.28
2023-01-07T09:07:58.017Z,101263.47
2023-01-07T09:10:44.917Z,101262.34
2023-01-07T09:13:31.682Z,101255.06
2023-01-07T09:16:20.188Z,101271.72
2023-01-07T09:19:07.009Z,101273.38
2023-01-07T09:21:54.029Z,101283.16
2023-01-07T09:24:40.545Z,101271.59
2023-01-07T09:27:27.975Z,101274.34
2023-01-07T09:30:14.637Z,101281.47
2023-01-07T09:33:02.660Z,101264.97
2023-01-07T09:35:49.454Z,101281.66
2023-01-07T09:38:36.625Z,101272.84
2023-01-07T09:41:33.098Z,101262.09
2023-01-07T09:44:28.343Z,101264.69
2023-01-07T09:47:18.585Z,101268.25
2023-01-07T09:50:15.185Z,101262.09
2023-01-07T09:53:07.925Z,101250.72
2023-01-07T09:56:11.990Z,101250.59
2023-01-07T09:59:01.618Z,101251.19
2023-01-07T10:01:55.612Z,101250.31
2023-01-07T10:04:50.733Z,101190.13
2023-01-07T10:07:43.364Z,101241.50
2023-01-07T10:10:37.935Z,101241.50
2023-01-07T10:13:54.665Z,101241.22
2023-01-07T10:16:49.288Z,101238.66
2023-01-07T10:19:46.546Z,101230.81
2023-01-07T10:22:38.077Z,101223.72
2023-01-07T10:25:29.779Z,101218.38
2023-01-07T10:28:23.859Z,101216.84
2023-01-07T10:31:18.976Z,101208.00
2023-01-07T10:34:14.023Z,101206.97
2023-01-07T10:37:04.167Z,101206.88
2023-01-07T10:39:58.963Z,101197.13
2023-01-07T10:42:54.932Z,101195.34
2023-01-07T10:45:52.693Z,101191.09
2023-01-07T10:49:01.220Z,101192.97
2023-01-07T10:52:15.321Z,101181.69
2023-01-07T10:55:30.034Z,101184.97
2023-01-07T10:58:18.355Z,101184.00
2023-01-07T11:01:06.231Z,101183.06
2023-01-07T11:03:56.839Z,101177.91
2023-01-07T11:06:48.825Z,101180.56
2023-01-07T11:09:39.376Z,101180.34
2023-01-07T11:12:33.926Z,101173.94
2023-01-07T11:15:25.187Z,101169.50
2023-01-07T11:18:17.793Z,101148.41
2023-01-07T11:21:04.696Z,101165.63
2023-01-07T11:23:51.648Z,101161.91
2023-01-07T11:26:38.526Z,101162.75
2023-01-07T11:29:27.238Z,101159.25
2023-01-07T11:32:23.660Z,101138.94
2023-01-07T11:35:22.743Z,101153.00
2023-01-07T11:38:28.522Z,101147.66
2023-01-07T11:41:24.242Z,101148.63
2023-01-07T11:44:16.670Z,101144.84
2023-01-07T11:47:04.802Z,101143.09
2023-01-07T11:49:53.059Z,101142.19
2023-01-07T11:52:39.624Z,101136.03
2023-01-07T11:55:26.892Z,101135.28
2023-01-07T11:58:28.970Z,101127.16
2023-01-07T12:01:20.085Z,101133.91
2023-01-07T12:04:15.285Z,101127.66
2023-01-07T12:07:06.970Z,101129.25
2023-01-07T12:09:53.753Z,101128.25
2023-01-07T12:12:45.148Z,101129.94
2023-01-07T12:15:34.989Z,101122.03
2023-01-07T12:18:57.317Z,101129.00
2023-01-07T12:21:57.334Z,101119.38
2023-01-07T12:25:16.109Z,101122.84
2023-01-07T12:28:12.252Z,101110.31
2023-01-07T12:31:23.052Z,101104.34
2023-01-07T12:34:20.702Z,101049.31
2023-01-07T12:37:14.731Z,101104.16
2023-01-07T12:40:19.684Z,101106.66
2023-01-07T12:43:13.885Z,101106.81
2023-01-07T12:46:02.582Z,101097.75
2023-01-07T12:48:59.280Z,101089.41
2023-01-07T12:51:51.653Z,101097.13
2023-01-07T12:54:48.539Z,101041.47
2023-01-07T12:57:40.069Z,101089.09
2023-01-07T13:00:30.558Z,101086.50
2023-01-07T13:03:29.370Z,101072.50
2023-01-07T13:06:21.228Z,101077.56
2023-01-07T13:09:17.611Z,101076.00
2023-01-07T13:12:40.470Z,101072.66
2023-01-07T13:15:33.966Z,101063.19
2023-01-07T13:18:21.808Z,101064.19
2023-01-07T13:21:09.960Z,101062.59
2023-01-07T13:24:14.514Z,101060.56
2023-01-07T13:27:14.142Z,101053.03
2023-01-07T13:30:12.066Z,101049.28
2023-01-07T13:33:12.108Z,101045.44
2023-01-07T13:36:14.636Z,101041.38
2023-01-07T13:39:26.925Z,101035.03
2023-01-07T13:42:23.622Z,101036.41
2023-01-07T13:45:14.789Z,101030.72
2023-01-07T13:48:06.366Z,101032.47
2023-01-07T13:50:59.446Z,101022.44
2023-01-07T13:53:48.173Z,101023.09
2023-01-07T13:56:37.573Z,101020.09
2023-01-07T13:59:32.682Z,101023.88
2023-01-07T14:02:22.430Z,101015.97
2023-01-07T14:05:25.150Z,101026.91
2023-01-07T14:08:11.852Z,101018.31
2023-01-07T14:10:58.703Z,101020.25
2023-01-07T14:13:56.115Z,101018.69
2023-01-07T14:16:49.211Z,100975.34
2023-01-07T14:19:45.228Z,101011.44
2023-01-07T14:22:45.191Z,101013.97
2023-01-07T14:26:00.542Z,101008.88
2023-01-07T14:29:20.342Z,101006.34
2023-01-07T14:32:37.072Z,101009.59
2023-01-07T14:35:29.869Z,101005.97
2023-01-07T14:39:07.013Z,101003.19
2023-01-07T14:42:41.423Z,101003.31
2023-01-07T14:45:54.447Z,101008.78
2023-01-07T14:48:41.256Z,101003.84
2023-01-07T14:51:46.132Z,101000.38
2023-01-07T14:55:00.886Z,101009.28
2023-01-07T14:58:00.948Z,101005.97
2023-01-07T15:01:18.279Z,101008.91
2023-01-07T15:04:34.350Z,101001.41
2023-01-07T15:07:24.928Z,100994.56
2023-01-07T15:10:38.658Z,100999.94
2023-01-07T15:13:45.002Z,101000.03
2023-01-07T15:16:35.761Z,101001.22
2023-01-07T15:19:22.991Z,100997.72
2023-01-07T15:22:31.079Z,100991.75
2023-01-07T15:25:33.965Z,100999.03
2023-01-07T15:28:31.190Z,100999.00
2023-01-07T15:31:25.834Z,100989.63
2023-01-07T15:34:14.149Z,100998.56
2023-01-07T15:37:05.380Z,100996.22
2023-01-07T15:39:56.238Z,100989.34
2023-01-07T15:42:44.372Z,100993.09
2023-01-07T15:45:31.362Z,100989.69
2023-01-07T15:48:19.377Z,100988.16
2023-01-07T15:51:16.002Z,100988.16
2023-01-07T15:54:02.747Z,100982.97
2023-01-07T15:56:50.908Z,100988.19
2023-01-07T15:59:43.205Z,100982.09
2023-01-07T16:02:34.562Z,100978.59
2023-01-07T16:05:25.338Z,100980.53
2023-01-07T16:08:18.572Z,100982.28
2023-01-07T16:11:09.054Z,100979.69
2023-01-07T16:13:58.155Z,100975.16
2023-01-07T16:16:45.219Z,100972.50
2023-01-07T16:19:31.799Z,100966.25
2023-01-07T16:22:23.785Z,100959.13
2023-01-07T16:25:15.270Z,100958.91
2023-01-07T16:28:03.184Z,100959.44
2023-01-07T16:30:52.705Z,100960.00
2023-01-07T16:33:40.885Z,100953.56
2023-01-07T16:36:31.911Z,100952.16
2023-01-07T16:39:23.613Z,100956.53
2023-01-07T16:42:23.545Z,100952.97
2023-01-07T16:45:24.665Z,100953.66
2023-01-07T16:48:19.762Z,100952.50
2023-01-07T16:51:27.170Z,100939.25
2023-01-07T16:54:37.309Z,100947.78
2023-01-07T16:57:44.990Z,100946.84
2023-01-07T17:00:31.508Z,100951.91
2023-01-07T17:03:18.418Z,100944.75
2023-01-07T17:06:07.522Z,100936.88
2023-01-07T17:08:56.700Z,100935.16
2023-01-07T17:11:44.667Z,100935.06
2023-01-07T17:14:50.972Z,100928.84
2023-01-07T17:17:37.876Z,100925.31
2023-01-07T17:20:24.768Z,100910.31
2023-01-07T17:23:32.874Z,100915.41
2023-01-07T17:26:23.491Z,100910.94
2023-01-07T17:29:13.853Z,100920.56
2023-01-07T17:32:00.660Z,100922.31
2023-01-07T17:34:47.394Z,100920.44
2023-01-07T17:37:37.050Z,100914.31
2023-01-07T17:40:23.738Z,100913.50
2023-01-07T17:43:34.685Z,100901.94
2023-01-07T17:46:24.124Z,100897.66
2023-01-07T17:49:11.600Z,100892.34
2023-01-07T17:51:58.301Z,100892.91
2023-01-07T17:54:45.817Z,100893.72
2023-01-07T17:57:32.452Z,100905.97
2023-01-07T18:00:21.351Z,100900.97
2023-01-07T18:03:09.256Z,100897.63
2023-01-07T18:06:11.910Z,100892.16
2023-01-07T18:09:02.417Z,100895.72
2023-01-07T18:12:08.662Z,100898.25
2023-01-07T18:14:58.718Z,100897.41
2023-01-07T18:17:47.330Z,100883.56
2023-01-07T18:20:35.543Z,100881.75
2023-01-07T18:23:22.800Z,100879.47
2023-01-07T18:26:09.883Z,100883.59
2023-01-07T18:28:57.170Z,100872.75
2023-01-07T18:31:45.879Z,100866.41
2023-01-07T18:34:32.389Z,100863.81
2023-01-07T18:37:20.588Z,100863.59
2023-01-07T18:40:09.375Z,100866.22
2023-01-07T18:42:56.754Z,100861.94
2023-01-07T18:45:47.136Z,100854.28
2023-01-07T18:48:36.026Z,100843.28
2023-01-07T18:51:23.151Z,100850.66
2023-01-07T18:54:11.242Z,100843.44
2023-01-07T18:56:58.177Z,100848.94
2023-01-07T18:59:45.367Z,100846.38
2023-01-07T19:02:32.119Z,100844.53
2023-01-07T19:05:19.004Z,100840.28
2023-01-07T19:08:06.459Z,100842.00
2023-01-07T19:10:54.352Z,100836.13
2023-01-07T19:13:41.321Z,100825.56
2023-01-07T19:16:28.220Z,100828.44
2023-01-07T19:19:15.197Z,100833.63
2023-01-07T19:22:02.147Z,100819.38
2023-01-07T19:24:48.946Z,100824.44
2023-01-07T19:27:37.221Z,100820.09
2023-01-07T19:30:25.271Z,100819.19
2023-01-07T19:33:12.159Z,100807.81
2023-01-07T19:36:03.995Z,100806.34
2023-01-07T19:38:52.997Z,100796.13
2023-01-07T19:41:39.567Z,100796.06
2023-01-07T19:44:27.819Z,100780.63
2023-01-07T19:47:17.290Z,100792.03
2023-01-07T19:50:04.080Z,100781.78
2023-01-07T19:52:50.830Z,100789.22
2023-01-07T19:55:37.524Z,100792.06
2023-01-07T19:58:24.559Z,100780.84
2023-01-07T20:01:15.740Z,100773.28
2023-01-07T20:04:02.542Z,100770.75
2023-01-07T20:06:50.598Z,100768.03
2023-01-07T20:09:37.093Z,100759.81
2023-01-07T20:12:23.896Z,100748.91
2023-01-07T20:15:11.338Z,100738.53
2023-01-07T20:17:59.295Z,100741.88
2023-01-07T20:20:46.293Z,100748.09
2023-01-07T20:23:35.200Z,100740.06
2023-01-07T20:26:24.148Z,100741.88
2023-01-07T20:29:11.080Z,100726.75
2023-01-07T20:31:58.022Z,100737.97
2023-01-07T20:34:46.554Z,100730.75
2023-01-07T20:37:33.375Z,100555.53
2023-01-07T20:40:20.184Z,100728.91
2023-01-07T20:43:07.303Z,100736.34
2023-01-07T20:45:59.653Z,100735.59
2023-01-07T20:48:46.278Z,100731.34
2023-01-07T20:51:34.556Z,100720.63
2023-01-07T20:54:21.217Z,100732.81
2023-01-07T20:57:07.836Z,100718.09
2023-01-07T20:59:54.765Z,100718.78
2023-01-07T21:02:41.743Z,100709.19
2023-01-07T21:05:28.495Z,100696.66
2023-01-07T21:08:17.600Z,100692.41
2023-01-07T21:11:04.640Z,100696.66
2023-01-07T21:13:52.295Z,100697.63
2023-01-07T21:16:39.194Z,100695.94
2023-01-07T21:19:25.901Z,100690.47
2023-01-07T21:22:12.769Z,100701.03
2023-01-07T21:25:00.841Z,100681.56
2023-01-07T21:27:48.724Z,100680.75
2023-01-07T21:30:36.584Z,100681.56
2023-01-07T21:33:23.177Z,100674.50
2023-01-07T21:36:10.577Z,100656.09
2023-01-07T21:39:00.466Z,100663.81
2023-01-07T21:41:48.587Z,100660.34
2023-01-07T21:44:35.363Z,100657.69
2023-01-07T21:47:22.100Z,100654.06
2023-01-07T21:50:09.742Z,100651.66
2023-01-07T21:52:56.436Z,100653.19
2023-01-07T21:55:43.290Z,100645.38
2023-01-07T21:58:31.273Z,100651.69
2023-01-07T22:01:19.454Z,100648.00
2023-01-07T22:04:06.227Z,100649.91
2023-01-07T22:06:52.995Z,100645.31
2023-01-07T22:09:39.880Z,100643.63
2023-01-07T22:12:26.838Z,100640.97
2023-01-07T22:15:15.076Z,100639.28
2023-01-07T22:18:01.927Z,100644.53
2023-01-07T22:20:58.229Z,100647.25
2023-01-07T22:23:46.474Z,100641.06
2023-01-07T22:26:33.468Z,100641.25
2023-01-07T22:29:20.309Z,100646.56
2023-01-07T22:32:08.544Z,100623.56
2023-01-07T22:34:55.369Z,100620.13
2023-01-07T22:37:50.304Z,100624.75
2023-01-07T22:40:38.157Z,100622.00
2023-01-07T22:43:26.661Z,100616.06
2023-01-07T22:46:18.191Z,100603.63
2023-01-07T22:49:09.675Z,100595.69
2023-01-07T22:52:00.887Z,100590.44
2023-01-07T22:54:49.844Z,100592.16
2023-01-07T22:57:37.555Z,100580.56
2023-01-07T23:00:40.971Z,100573.47
2023-01-07T23:03:27.436Z,100585.72
2023-01-07T23:06:16.442Z,100567.69
2023-01-07T23:09:03.331Z,100543.31
2023-01-07T23:11:51.177Z,100563.09
2023-01-07T23:14:38.492Z,100576.09
2023-01-07T23:17:25.040Z,100574.38
2023-01-07T23:20:12.597Z,100577.25
2023-01-07T23:23:01.283Z,100581.53
2023-01-07T23:25:49.502Z,100564.84
2023-01-07T23:28:36.254Z,100565.34
2023-01-07T23:31:23.277Z,100562.00
2023-01-07T23:34:10.388Z,100567.22
2023-01-07T23:36:56.772Z,100565.41
2023-01-07T23:39:45.046Z,100560.34
2023-01-07T23:42:31.851Z,100554.28
2023-01-07T23:45:20.191Z,100554.13
2023-01-07T23:48:08.555Z,100551.28
2023-01-07T23:50:55.271Z,100546.19
2023-01-07T23:53:42.884Z,100540.91
2023-01-07T23:56:30.829Z,100539.09
2023-01-07T23:59:18.653Z,100538.22
